createdAt,value
2018-03-29T00:01:02.266Z,14.30
2018-03-29T00:03:30.457Z,13.67
2018-03-29T00:05:58.518Z,13.87
2018-03-29T00:08:25.931Z,12.90
2018-03-29T00:10:53.374Z,14.60
2018-03-29T00:13:20.777Z,12.77
2018-03-29T00:15:48.202Z,11.80
2018-03-29T00:18:15.630Z,9.90
2018-03-29T00:20:43.042Z,9.00
2018-03-29T00:23:10.469Z,8.10
2018-03-29T00:25:37.896Z,8.37
2018-03-29T00:28:06.072Z,7.87
2018-03-29T00:30:33.502Z,7.90
2018-03-29T00:33:00.918Z,7.90
2018-03-29T00:35:28.392Z,8.73
2018-03-29T00:37:55.746Z,8.53
2018-03-29T00:40:23.917Z,9.30
2018-03-29T00:42:53.021Z,7.70
2018-03-29T00:45:20.444Z,6.60
2018-03-29T00:47:47.877Z,7.80
2018-03-29T00:50:16.052Z,6.70
2018-03-29T00:52:44.232Z,7.57
2018-03-29T00:55:11.654Z,6.77
2018-03-29T00:57:39.078Z,7.05
2018-03-29T01:00:07.282Z,7.60
2018-03-29T01:02:34.681Z,6.10
2018-03-29T01:05:02.101Z,6.35
2018-03-29T01:07:30.295Z,6.10
2018-03-29T01:09:58.465Z,5.30
2018-03-29T01:12:26.679Z,5.30
2018-03-29T01:14:54.868Z,5.30
2018-03-29T01:17:23.194Z,5.60
2018-03-29T01:19:50.602Z,5.67
2018-03-29T01:22:18.782Z,5.40
2018-03-29T01:24:46.958Z,5.57
2018-03-29T01:27:14.394Z,5.57
2018-03-29T01:29:41.794Z,5.90
2018-03-29T01:32:09.318Z,4.93
2018-03-29T01:34:36.761Z,5.33
2018-03-29T01:37:05.060Z,5.20
2018-03-29T01:39:32.466Z,4.60
2018-03-29T01:41:59.869Z,4.80
2018-03-29T01:44:28.040Z,3.90
2018-03-29T01:46:55.479Z,4.27
2018-03-29T01:49:23.802Z,4.50
2018-03-29T01:51:51.226Z,5.00
2018-03-29T01:54:18.646Z,4.50
2018-03-29T01:56:46.046Z,3.80
2018-03-29T01:59:13.476Z,3.63
2018-03-29T02:01:40.886Z,4.00
2018-03-29T02:04:08.298Z,4.13
2018-03-29T02:06:35.741Z,4.53
2018-03-29T02:09:03.162Z,3.97
2018-03-29T02:11:30.596Z,3.60
2018-03-29T02:13:58.034Z,3.63
2018-03-29T02:16:25.506Z,3.77
2018-03-29T02:18:52.927Z,4.10
2018-03-29T02:21:20.334Z,4.20
2018-03-29T02:23:47.746Z,3.70
2018-03-29T02:26:15.155Z,4.40
2018-03-29T02:28:42.561Z,4.50
2018-03-29T02:31:09.994Z,3.60
2018-03-29T02:33:37.399Z,3.30
2018-03-29T02:36:04.826Z,3.43
2018-03-29T02:38:32.243Z,2.63
2018-03-29T02:40:59.649Z,2.30
2018-03-29T02:43:27.831Z,2.03
2018-03-29T02:45:56.017Z,2.40
2018-03-29T02:48:25.107Z,2.10
2018-03-29T02:50:52.515Z,1.93
2018-03-29T02:53:19.940Z,2.20
2018-03-29T02:55:48.127Z,2.60
2018-03-29T02:58:15.538Z,2.10
2018-03-29T03:00:42.962Z,2.00
2018-03-29T03:03:10.370Z,2.07
2018-03-29T03:05:37.803Z,2.17
2018-03-29T03:08:05.204Z,2.37
2018-03-29T03:10:32.614Z,2.60
2018-03-29T03:13:00.026Z,2.33
2018-03-29T03:15:28.214Z,2.57
2018-03-29T03:17:55.613Z,2.30
2018-03-29T03:20:23.028Z,2.80
2018-03-29T03:22:51.430Z,2.40
2018-03-29T03:25:19.609Z,2.80
2018-03-29T03:27:47.832Z,2.57
2018-03-29T03:30:15.191Z,2.20
2018-03-29T03:32:42.589Z,3.70
2018-03-29T03:35:10.006Z,2.97
2018-03-29T03:37:37.452Z,2.97
2018-03-29T03:40:04.866Z,3.17
2018-03-29T03:42:32.264Z,2.63
2018-03-29T03:44:59.682Z,3.50
2018-03-29T03:47:27.863Z,3.70
2018-03-29T03:49:55.789Z,4.10
2018-03-29T03:52:23.189Z,4.30
2018-03-29T03:54:50.594Z,4.27
2018-03-29T03:57:17.998Z,3.80
2018-03-29T03:59:45.418Z,4.00
2018-03-29T04:02:13.601Z,4.37
2018-03-29T04:04:41.037Z,4.53
2018-03-29T04:07:08.454Z,4.17
2018-03-29T04:09:35.870Z,3.37
2018-03-29T04:12:03.290Z,3.40
2018-03-29T04:14:30.702Z,3.50
2018-03-29T04:16:58.163Z,2.92
2018-03-29T04:19:26.225Z,3.50
2018-03-29T04:21:53.641Z,3.10
2018-03-29T04:24:21.095Z,3.70
2018-03-29T04:26:48.502Z,3.20
2018-03-29T04:29:16.702Z,3.57
2018-03-29T04:31:44.101Z,3.07
2018-03-29T04:34:11.538Z,2.90
2018-03-29T04:36:39.022Z,3.40
2018-03-29T04:39:09.246Z,2.90
2018-03-29T04:41:36.654Z,2.75
2018-03-29T04:44:04.081Z,2.50
2018-03-29T04:46:31.537Z,2.90
2018-03-29T04:48:58.954Z,2.90
2018-03-29T04:51:26.812Z,3.50
2018-03-29T04:53:54.234Z,4.17
2018-03-29T04:56:22.411Z,3.63
2018-03-29T04:58:49.820Z,3.93
2018-03-29T05:01:17.263Z,3.80
2018-03-29T05:03:45.509Z,4.17
2018-03-29T05:06:12.931Z,3.93
2018-03-29T05:08:40.372Z,4.27
2018-03-29T05:11:07.786Z,3.57
2018-03-29T05:13:35.220Z,3.00
2018-03-29T05:16:03.386Z,3.53
2018-03-29T05:18:30.823Z,3.40
2018-03-29T05:20:58.210Z,4.33
2018-03-29T05:23:25.622Z,4.17
2018-03-29T05:25:53.059Z,4.30
2018-03-29T05:28:20.467Z,4.93
2018-03-29T05:30:47.963Z,5.67
2018-03-29T05:33:15.379Z,6.13
2018-03-29T05:35:43.578Z,5.80
2018-03-29T05:38:10.999Z,5.60
2018-03-29T05:40:38.421Z,6.23
2018-03-29T05:43:05.833Z,6.13
2018-03-29T05:45:33.257Z,5.60
2018-03-29T05:48:00.672Z,6.10
2018-03-29T05:50:28.092Z,6.70
2018-03-29T05:52:56.278Z,7.43
2018-03-29T05:55:23.693Z,7.03
2018-03-29T05:57:51.102Z,7.20
2018-03-29T06:00:19.282Z,8.00
2018-03-29T06:02:46.707Z,6.90
2018-03-29T06:05:14.149Z,8.25
2018-03-29T06:07:43.299Z,7.90
2018-03-29T06:10:10.739Z,8.30
2018-03-29T06:12:38.146Z,7.57
2018-03-29T06:15:12.154Z,7.13
2018-03-29T06:17:42.037Z,6.90
2018-03-29T06:20:10.186Z,7.07
2018-03-29T06:22:38.666Z,5.93
2018-03-29T06:25:06.163Z,7.47
2018-03-29T06:27:33.606Z,5.73
2018-03-29T06:30:01.016Z,5.83
2018-03-29T06:32:29.387Z,5.68
2018-03-29T06:34:58.490Z,5.97
2018-03-29T06:37:26.670Z,5.83
2018-03-29T06:39:54.094Z,5.70
2018-03-29T06:42:21.503Z,6.00
2018-03-29T06:44:49.676Z,5.50
2018-03-29T06:47:17.110Z,5.73
2018-03-29T06:49:44.556Z,5.47
2018-03-29T06:52:12.075Z,5.90
2018-03-29T06:54:39.483Z,6.10
2018-03-29T06:57:07.674Z,5.07
2018-03-29T06:59:35.105Z,5.90
2018-03-29T07:02:02.578Z,6.33
2018-03-29T07:04:29.997Z,7.30
2018-03-29T07:06:57.443Z,6.77
2018-03-29T07:09:25.641Z,5.37
2018-03-29T07:11:53.114Z,7.50
2018-03-29T07:14:20.527Z,7.33
2018-03-29T07:16:47.939Z,7.70
2018-03-29T07:19:15.354Z,8.10
2018-03-29T07:21:42.821Z,8.53
2018-03-29T07:24:10.234Z,8.57
2018-03-29T07:26:38.398Z,9.30
2018-03-29T07:29:05.817Z,9.07
2018-03-29T07:31:33.247Z,9.97
2018-03-29T07:34:01.429Z,10.37
2018-03-29T07:36:29.792Z,9.87
2018-03-29T07:38:57.208Z,10.00
2018-03-29T07:41:25.720Z,9.50
2018-03-29T07:43:53.210Z,9.20
2018-03-29T07:46:20.643Z,11.17
2018-03-29T07:48:48.063Z,11.27
2018-03-29T07:51:15.476Z,10.20
2018-03-29T07:53:42.913Z,10.90
2018-03-29T07:56:10.360Z,12.10
2018-03-29T07:58:37.769Z,11.73
2018-03-29T08:01:05.950Z,11.43
2018-03-29T08:03:34.136Z,11.33
2018-03-29T08:06:02.323Z,12.57
2018-03-29T08:08:31.157Z,11.85
2018-03-29T08:10:58.554Z,11.90
2018-03-29T08:13:25.986Z,12.20
2018-03-29T08:15:53.393Z,13.00
2018-03-29T08:18:20.829Z,11.20
2018-03-29T08:20:48.253Z,13.87
2018-03-29T08:23:16.446Z,14.30
2018-03-29T08:25:44.625Z,12.97
2018-03-29T08:28:12.039Z,12.97
2018-03-29T08:30:39.481Z,13.37
2018-03-29T08:33:07.708Z,12.50
2018-03-29T08:35:35.844Z,13.73
2018-03-29T08:38:04.030Z,13.23
2018-03-29T08:40:31.465Z,13.50
2018-03-29T08:42:58.870Z,13.23
2018-03-29T08:45:27.066Z,13.80
2018-03-29T08:47:55.279Z,13.40
2018-03-29T08:50:22.691Z,14.33
2018-03-29T08:52:50.102Z,12.43
2018-03-29T08:55:17.528Z,14.27
2018-03-29T08:57:44.950Z,13.57
2018-03-29T09:00:12.395Z,12.27
2018-03-29T09:02:40.558Z,12.47
2018-03-29T09:05:08.746Z,12.80
2018-03-29T09:07:36.172Z,12.73
2018-03-29T09:10:03.581Z,11.60
2018-03-29T09:12:32.489Z,12.60
2018-03-29T09:15:01.590Z,12.10
2018-03-29T09:17:29.789Z,12.60
2018-03-29T09:19:57.989Z,13.23
2018-03-29T09:22:25.669Z,14.40
2018-03-29T09:24:53.119Z,13.30
2018-03-29T09:27:21.328Z,14.50
2018-03-29T09:29:48.796Z,14.90
2018-03-29T09:32:16.207Z,15.60
2018-03-29T09:34:43.619Z,16.27
2018-03-29T09:37:11.048Z,14.60
2018-03-29T09:39:38.464Z,16.20
2018-03-29T09:42:05.878Z,15.67
2018-03-29T09:44:33.290Z,14.03
2018-03-29T09:47:00.697Z,15.33
2018-03-29T09:49:28.111Z,16.07
2018-03-29T09:51:56.321Z,17.07
2018-03-29T09:54:23.739Z,18.30
2018-03-29T09:56:51.160Z,18.30
2018-03-29T09:59:18.576Z,14.93
2018-03-29T10:01:46.027Z,17.00
2018-03-29T10:04:13.425Z,16.67
2018-03-29T10:06:41.653Z,18.17
2018-03-29T10:09:09.054Z,18.23
2018-03-29T10:11:36.463Z,17.60
2018-03-29T10:14:03.883Z,18.00
2018-03-29T10:16:31.327Z,18.80
2018-03-29T10:18:58.734Z,19.27
2018-03-29T10:21:26.160Z,19.13
2018-03-29T10:23:53.617Z,20.37
2018-03-29T10:26:21.035Z,16.43
2018-03-29T10:28:48.451Z,18.83
2018-03-29T10:31:15.865Z,20.90
2018-03-29T10:33:43.324Z,19.77
2018-03-29T10:36:10.769Z,17.60
2018-03-29T10:38:38.202Z,19.87
2018-03-29T10:41:05.662Z,19.70
2018-03-29T10:43:34.167Z,19.37
2018-03-29T10:46:03.335Z,20.70
2018-03-29T10:48:30.767Z,19.17
2018-03-29T10:50:58.194Z,19.33
2018-03-29T10:53:25.652Z,20.83
2018-03-29T10:55:53.095Z,21.47
2018-03-29T10:58:20.575Z,21.80
2018-03-29T11:00:47.987Z,21.90
2018-03-29T11:03:15.476Z,22.47
2018-03-29T11:05:42.886Z,22.60
2018-03-29T11:08:10.326Z,22.92
2018-03-29T11:10:37.759Z,21.97
2018-03-29T11:13:05.190Z,22.73
2018-03-29T11:15:32.591Z,25.30
2018-03-29T11:18:00.812Z,23.40
2018-03-29T11:20:28.983Z,23.37
2018-03-29T11:22:57.245Z,24.33
2018-03-29T11:25:24.664Z,24.60
2018-03-29T11:27:52.078Z,23.90
2018-03-29T11:30:19.509Z,24.67
2018-03-29T11:32:46.943Z,23.47
2018-03-29T11:35:15.171Z,24.67
2018-03-29T11:37:42.599Z,25.47
2018-03-29T11:40:10.902Z,24.30
2018-03-29T11:42:38.557Z,24.50
2018-03-29T11:45:12.636Z,22.27
2018-03-29T11:47:40.077Z,21.73
2018-03-29T11:50:07.516Z,21.43
2018-03-29T11:52:35.710Z,21.70
2018-03-29T11:55:03.118Z,21.60
2018-03-29T11:57:30.582Z,21.83
2018-03-29T11:59:58.080Z,20.83
2018-03-29T12:02:25.463Z,22.80
2018-03-29T12:04:53.698Z,21.90
2018-03-29T12:07:21.110Z,21.40
2018-03-29T12:09:49.291Z,22.23
2018-03-29T12:12:16.699Z,21.80
2018-03-29T12:14:44.146Z,16.57
2018-03-29T12:17:12.354Z,21.90
2018-03-29T12:19:40.550Z,20.30
2018-03-29T12:22:07.982Z,19.63
2018-03-29T12:24:36.171Z,20.30
2018-03-29T12:27:03.768Z,19.63
2018-03-29T12:29:31.209Z,20.77
2018-03-29T12:31:58.650Z,20.87
2018-03-29T12:34:26.080Z,20.70
2018-03-29T12:36:53.510Z,20.83
2018-03-29T12:39:21.012Z,19.83
2018-03-29T12:41:48.434Z,20.93
2018-03-29T12:44:15.862Z,20.03
2018-03-29T12:46:43.368Z,20.40
2018-03-29T12:49:10.769Z,22.30
2018-03-29T12:51:38.957Z,20.97
2018-03-29T12:54:07.136Z,21.10
2018-03-29T12:56:47.938Z,21.40
2018-03-29T12:59:15.358Z,22.67
2018-03-29T13:01:42.784Z,21.50
2018-03-29T13:04:11.066Z,22.47
2018-03-29T13:06:39.259Z,20.53
2018-03-29T13:09:06.688Z,21.93
2018-03-29T13:11:36.539Z,20.17
2018-03-29T13:14:03.930Z,21.20
2018-03-29T13:16:31.361Z,20.00
2018-03-29T13:18:58.786Z,20.30
2018-03-29T13:21:26.239Z,20.63
2018-03-29T13:23:53.682Z,21.20
2018-03-29T13:26:21.850Z,19.37
2018-03-29T13:28:50.038Z,20.33
2018-03-29T13:31:18.219Z,15.97
2018-03-29T13:33:46.403Z,14.23
2018-03-29T13:36:13.815Z,12.45
2018-03-29T13:38:41.269Z,13.63
2018-03-29T13:41:08.690Z,12.97
2018-03-29T13:43:37.040Z,12.00
2018-03-29T13:46:04.450Z,9.00
2018-03-29T13:48:31.864Z,10.20
2018-03-29T13:50:59.292Z,10.93
2018-03-29T13:53:26.728Z,10.20
2018-03-29T13:55:54.133Z,12.43
2018-03-29T13:58:21.639Z,11.43
2018-03-29T14:00:49.827Z,12.83
2018-03-29T14:03:17.248Z,12.73
2018-03-29T14:05:44.661Z,12.63
2018-03-29T14:08:13.634Z,14.47
2018-03-29T14:10:41.835Z,13.80
2018-03-29T14:13:09.286Z,13.40
2018-03-29T14:15:37.498Z,11.97
2018-03-29T14:18:04.914Z,13.57
2018-03-29T14:20:32.372Z,14.20
2018-03-29T14:22:59.808Z,14.20
2018-03-29T14:25:27.986Z,14.33
2018-03-29T14:27:56.196Z,14.23
2018-03-29T14:30:23.640Z,14.40
2018-03-29T14:32:51.139Z,14.95
2018-03-29T14:35:18.560Z,14.67
2018-03-29T14:37:46.742Z,14.73
2018-03-29T14:40:14.963Z,15.05
2018-03-29T14:42:43.165Z,15.53
2018-03-29T14:45:10.572Z,15.33
2018-03-29T14:47:38.223Z,14.75
2018-03-29T14:50:05.686Z,14.60
2018-03-29T14:52:33.115Z,14.90
2018-03-29T14:55:01.268Z,14.50
2018-03-29T14:57:28.683Z,13.40
2018-03-29T14:59:56.135Z,14.37
2018-03-29T15:02:24.294Z,14.47
2018-03-29T15:04:52.500Z,13.57
2018-03-29T15:07:20.686Z,13.17
2018-03-29T15:09:48.169Z,13.17
2018-03-29T15:12:16.334Z,14.33
2018-03-29T15:14:44.580Z,12.43
2018-03-29T15:17:12.206Z,12.63
2018-03-29T15:19:40.389Z,12.03
2018-03-29T15:22:09.516Z,12.50
2018-03-29T15:24:37.034Z,11.10
2018-03-29T15:27:04.418Z,11.10
2018-03-29T15:29:32.676Z,10.30
2018-03-29T15:32:00.132Z,9.90
2018-03-29T15:34:27.542Z,10.80
2018-03-29T15:36:54.936Z,9.73
2018-03-29T15:39:22.419Z,10.70
2018-03-29T15:41:49.882Z,10.40
2018-03-29T15:44:17.322Z,9.33
2018-03-29T15:46:45.621Z,9.23
2018-03-29T15:49:13.799Z,9.73
2018-03-29T15:51:42.007Z,9.20
2018-03-29T15:54:10.274Z,8.38
2018-03-29T15:56:39.378Z,8.87
2018-03-29T15:59:07.577Z,8.70
2018-03-29T16:01:35.005Z,8.97
2018-03-29T16:04:02.410Z,9.70
2018-03-29T16:06:29.818Z,9.70
2018-03-29T16:08:57.238Z,9.80
2018-03-29T16:11:25.447Z,9.63
2018-03-29T16:13:52.890Z,9.97
2018-03-29T16:16:21.089Z,10.80
2018-03-29T16:18:49.260Z,11.13
2018-03-29T16:21:17.454Z,11.17
2018-03-29T16:23:45.656Z,10.90
2018-03-29T16:26:13.136Z,11.20
2018-03-29T16:28:41.318Z,11.60
2018-03-29T16:31:08.748Z,11.53
2018-03-29T16:33:36.936Z,11.03
2018-03-29T16:36:04.362Z,10.90
2018-03-29T16:38:31.775Z,11.77
2018-03-29T16:40:59.956Z,10.23
2018-03-29T16:43:27.383Z,10.30
2018-03-29T16:45:54.890Z,10.93
2018-03-29T16:48:22.315Z,9.93
2018-03-29T16:50:49.734Z,10.30
2018-03-29T16:53:17.926Z,9.63
2018-03-29T16:55:46.135Z,11.30
2018-03-29T16:58:13.578Z,11.00
2018-03-29T17:00:41.020Z,10.80
2018-03-29T17:03:08.438Z,10.30
2018-03-29T17:05:35.903Z,10.90
2018-03-29T17:08:03.306Z,10.17
2018-03-29T17:10:30.781Z,10.67
2018-03-29T17:12:58.166Z,9.80
2018-03-29T17:15:25.580Z,10.67
2018-03-29T17:17:52.993Z,10.13
2018-03-29T17:20:20.407Z,10.30
2018-03-29T17:22:47.844Z,9.40
2018-03-29T17:25:15.255Z,9.60
2018-03-29T17:27:42.661Z,9.20
2018-03-29T17:30:10.121Z,8.33
2018-03-29T17:32:37.555Z,9.10
2018-03-29T17:35:05.732Z,9.40
2018-03-29T17:37:33.150Z,9.33
2018-03-29T17:40:01.334Z,9.50
2018-03-29T17:42:28.755Z,10.70
2018-03-29T17:44:56.185Z,11.10
2018-03-29T17:47:23.610Z,12.23
2018-03-29T17:49:51.026Z,12.10
2018-03-29T17:52:18.453Z,12.07
2018-03-29T17:54:45.871Z,13.00
2018-03-29T17:57:13.320Z,13.40
2018-03-29T17:59:40.727Z,16.00
2018-03-29T18:02:08.913Z,12.97
2018-03-29T18:04:36.326Z,13.53
2018-03-29T18:07:03.772Z,12.47
2018-03-29T18:09:31.182Z,13.70
2018-03-29T18:11:58.642Z,14.60
2018-03-29T18:14:26.070Z,14.63
2018-03-29T18:16:53.540Z,14.73
2018-03-29T18:19:21.701Z,15.50
2018-03-29T18:21:49.904Z,14.00
2018-03-29T18:24:17.330Z,14.37
2018-03-29T18:26:44.788Z,15.60
2018-03-29T18:29:13.439Z,15.30
2018-03-29T18:31:42.550Z,14.97
2018-03-29T18:34:10.014Z,13.87
2018-03-29T18:36:37.457Z,14.33
2018-03-29T18:39:04.913Z,15.17
2018-03-29T18:41:32.323Z,16.27
2018-03-29T18:43:59.785Z,14.30
2018-03-29T18:46:27.970Z,15.10
2018-03-29T18:48:55.381Z,15.90
2018-03-29T18:51:22.817Z,14.63
2018-03-29T18:53:50.240Z,14.97
2018-03-29T18:56:17.660Z,15.67
2018-03-29T18:58:45.087Z,16.10
2018-03-29T19:01:13.997Z,17.40
2018-03-29T19:03:43.110Z,16.83
2018-03-29T19:06:11.341Z,18.27
2018-03-29T19:08:38.772Z,18.73
2018-03-29T19:11:06.974Z,19.43
2018-03-29T19:13:34.447Z,19.07
2018-03-29T19:16:01.870Z,20.53
2018-03-29T19:18:29.297Z,21.17
2018-03-29T19:20:56.802Z,22.75
2018-03-29T19:23:24.217Z,22.30
2018-03-29T19:25:51.642Z,23.37
2018-03-29T19:28:19.085Z,23.20
2018-03-29T19:30:46.506Z,23.60
2018-03-29T19:33:13.953Z,23.53
2018-03-29T19:35:41.436Z,23.77
2018-03-29T19:38:08.922Z,22.00
2018-03-29T19:40:38.146Z,22.93
2018-03-29T19:43:05.635Z,24.43
2018-03-29T19:45:33.066Z,24.97
2018-03-29T19:48:01.257Z,25.23
2018-03-29T19:50:29.451Z,26.80
2018-03-29T19:52:57.653Z,26.10
2018-03-29T19:55:25.062Z,26.40
2018-03-29T19:57:52.599Z,26.33
2018-03-29T20:00:20.016Z,27.48
2018-03-29T20:02:48.221Z,28.52
2018-03-29T20:05:15.658Z,27.87
2018-03-29T20:07:43.145Z,26.97
2018-03-29T20:10:11.341Z,27.63
2018-03-29T20:12:39.514Z,28.17
2018-03-29T20:15:07.725Z,25.80
2018-03-29T20:17:35.146Z,25.50
2018-03-29T20:20:02.606Z,25.27
2018-03-29T20:22:30.100Z,26.63
2018-03-29T20:24:57.469Z,26.40
2018-03-29T20:27:25.668Z,25.77
2018-03-29T20:29:53.853Z,28.20
2018-03-29T20:32:22.073Z,25.77
2018-03-29T20:34:49.486Z,23.93
2018-03-29T20:37:16.914Z,24.90
2018-03-29T20:39:46.030Z,24.73
2018-03-29T20:42:13.472Z,24.13
2018-03-29T20:44:40.912Z,24.57
2018-03-29T20:47:09.102Z,24.07
2018-03-29T20:49:37.281Z,23.67
2018-03-29T20:52:05.467Z,23.50
2018-03-29T20:54:32.881Z,24.50
2018-03-29T20:57:00.316Z,23.93
2018-03-29T20:59:28.537Z,24.50
2018-03-29T21:01:55.999Z,22.20
2018-03-29T21:04:24.175Z,22.47
2018-03-29T21:06:51.660Z,22.70
2018-03-29T21:09:19.083Z,23.37
2018-03-29T21:11:48.006Z,24.40
2018-03-29T21:14:16.590Z,24.20
2018-03-29T21:16:45.707Z,23.40
2018-03-29T21:19:13.163Z,24.23
2018-03-29T21:21:41.437Z,23.40
2018-03-29T21:24:08.879Z,23.73
2018-03-29T21:26:36.430Z,23.20
2018-03-29T21:29:03.899Z,23.57
2018-03-29T21:31:31.286Z,23.80
2018-03-29T21:33:58.707Z,25.73
2018-03-29T21:36:26.896Z,24.53
2018-03-29T21:38:54.334Z,25.55
2018-03-29T21:41:21.776Z,25.80
2018-03-29T21:43:49.189Z,25.57
2018-03-29T21:46:17.398Z,25.10
2018-03-29T21:48:46.498Z,25.27
2018-03-29T21:51:13.914Z,24.80
2018-03-29T21:53:41.362Z,24.27
2018-03-29T21:56:08.778Z,23.57
2018-03-29T21:58:36.187Z,23.73
2018-03-29T22:01:03.622Z,25.27
2018-03-29T22:03:31.037Z,25.53
2018-03-29T22:05:59.021Z,33.93
2018-03-29T22:08:26.462Z,29.17
2018-03-29T22:10:53.914Z,28.10
2018-03-29T22:13:21.334Z,24.98
2018-03-29T22:15:48.764Z,26.80
2018-03-29T22:18:17.143Z,24.90
2018-03-29T22:20:45.335Z,25.43
2018-03-29T22:23:13.593Z,25.83
2018-03-29T22:25:41.030Z,30.80
2018-03-29T22:28:08.521Z,25.20
2018-03-29T22:30:35.956Z,27.10
2018-03-29T22:33:03.374Z,26.10
2018-03-29T22:35:30.798Z,30.93
2018-03-29T22:37:58.237Z,35.57
2018-03-29T22:40:25.670Z,30.12
2018-03-29T22:42:53.114Z,29.00
2018-03-29T22:45:20.506Z,27.80
2018-03-29T22:47:47.969Z,38.90
2018-03-29T22:50:15.402Z,36.10
2018-03-29T22:52:42.836Z,34.78
2018-03-29T22:55:10.250Z,30.67
2018-03-29T22:57:37.679Z,26.97
2018-03-29T23:00:05.867Z,28.70
2018-03-29T23:02:33.325Z,28.97
2018-03-29T23:05:00.732Z,28.77
2018-03-29T23:07:28.170Z,27.55
2018-03-29T23:09:56.376Z,27.20
2018-03-29T23:12:23.814Z,27.70
2018-03-29T23:14:52.010Z,28.30
2018-03-29T23:17:20.220Z,27.90
2018-03-29T23:19:49.183Z,28.35
2018-03-29T23:22:18.318Z,28.43
2018-03-29T23:24:45.776Z,28.50
2018-03-29T23:27:13.987Z,27.60
2018-03-29T23:29:41.433Z,27.90
2018-03-29T23:32:09.615Z,29.40
2018-03-29T23:34:37.798Z,28.50
2018-03-29T23:37:05.239Z,28.50
2018-03-29T23:39:32.660Z,28.77
2018-03-29T23:42:00.104Z,26.40
2018-03-29T23:44:28.308Z,30.27
2018-03-29T23:46:55.738Z,29.27
2018-03-29T23:49:23.171Z,30.17
2018-03-29T23:51:50.655Z,30.37
2018-03-29T23:54:19.018Z,30.52
2018-03-29T23:56:46.432Z,29.30
2018-03-29T23:59:13.901Z,30.23
